Time;durP1;ratioP1;P1;durP2;ratioP2;P2;SDS_P1;SDS_P2;PMS_P1;PMS_P2;Temp;Humidity;BMP_temperature;BMP_pressure;BME280_temperature;BME280_humidity;BME280_pressure;Samples;Min_cycle;Max_cycle;Signal;HPM_P1;HPM_P2
2022/07/01 00:02:15;;;;;;;72.32;49.67;;;;;;;16.69;100.00;99486.36;1775265;81;26204;-70
2022/07/01 00:08:40;;;;;;;87.20;58.75;;;;;;;16.67;100.00;99484.48;1774453;81;20898;-71
2022/07/01 00:15:19;;;;;;;74.25;51.55;;;;;;;16.66;100.00;99486.95;1783154;80;20906;-71
2022/07/01 00:25:38;;;;;;;53.42;39.70;;;;;;;16.57;100.00;99498.20;1766314;81;20886;-72
2022/07/01 00:32:04;;;;;;;51.77;40.38;;;;;;;16.60;100.00;99499.75;1788089;80;20877;-71
2022/07/01 00:38:43;;;;;;;44.40;34.03;;;;;;;16.52;100.00;99494.22;1788517;80;20905;-71
2022/07/01 00:45:17;;;;;;;44.30;33.63;;;;;;;16.39;100.00;99484.38;1788713;80;20901;-72
2022/07/01 00:51:43;;;;;;;49.25;37.23;;;;;;;16.37;100.00;99485.22;1788125;80;20900;-71
2022/07/01 00:58:22;;;;;;;46.85;37.13;;;;;;;16.34;100.00;99485.81;1757357;81;21333;-71
2022/07/01 01:05:00;;;;;;;38.02;29.98;;;;;;;16.27;100.00;99483.46;1784494;80;20919;-71
2022/07/01 01:11:38;;;;;;;32.98;24.98;;;;;;;16.24;100.00;99484.05;1784850;80;20872;-72
2022/07/01 01:18:17;;;;;;;35.45;26.20;;;;;;;16.21;100.00;99491.94;1784511;80;20845;-70
2022/07/01 01:28:27;;;;;;;39.18;31.93;;;;;;;16.12;100.00;99486.91;1773387;81;20873;-72
2022/07/01 01:34:54;;;;;;;36.88;30.85;;;;;;;16.07;100.00;99494.03;1773464;81;20900;-71
2022/07/01 01:41:27;;;;;;;29.35;22.95;;;;;;;16.07;100.00;99487.81;1773544;81;20845;-73
2022/07/01 01:48:02;;;;;;;32.00;24.00;;;;;;;16.06;100.00;99491.60;1774030;81;20860;-71
2022/07/01 01:54:40;;;;;;;33.95;25.80;;;;;;;16.07;100.00;99500.80;1773624;81;21447;-72
2022/07/01 02:01:19;;;;;;;56.35;40.05;;;;;;;15.96;100.00;99503.92;1788688;80;20900;-70
2022/07/01 02:07:58;;;;;;;46.83;35.30;;;;;;;15.78;100.00;99498.75;1787985;80;20850;-70
2022/07/01 02:14:36;;;;;;;37.48;28.25;;;;;;;15.78;100.00;99506.31;1788463;80;20912;-71
2022/07/01 02:21:15;;;;;;;35.13;25.62;;;;;;;15.84;100.00;99514.61;1787918;80;21408;-72
2022/07/01 02:31:25;;;;;;;31.95;26.05;;;;;;;15.91;100.00;99515.63;1808006;79;20869;-72
2022/07/01 02:37:49;;;;;;;37.05;28.15;;;;;;;16.08;100.00;99510.52;1807727;79;20904;-71
2022/07/01 02:44:28;;;;;;;38.00;26.60;;;;;;;16.33;100.00;99511.27;1808268;79;20924;-71
2022/07/01 02:51:07;;;;;;;29.87;24.07;;;;;;;16.66;100.00;99520.27;1807754;79;20841;-72
2022/07/01 02:57:45;;;;;;;31.75;23.12;;;;;;;17.05;100.00;99522.37;1815798;79;20899;-72
2022/07/01 03:04:23;;;;;;;36.17;25.62;;;;;;;17.56;100.00;99528.23;1761307;81;21420;-72
2022/07/01 03:10:49;;;;;;;39.95;30.30;;;;;;;18.02;100.00;99531.98;1761209;81;20874;-72
2022/07/01 03:17:30;;;;;;;21.87;18.75;;;;;;;18.24;100.00;99530.69;1761705;81;20912;-72
2022/07/01 03:24:09;;;;;;;41.00;33.02;;;;;;;18.72;100.00;99538.31;1761701;81;20874;-72
2022/07/01 03:34:20;;;;;;;41.88;35.28;;;;;;;19.61;100.00;99542.06;1808810;77;20912;-72
2022/07/01 03:40:40;;;;;;;57.13;42.15;;;;;;;19.98;100.00;99554.16;1805976;79;20888;-70
2022/07/01 03:47:06;;;;;;;49.03;35.90;;;;;;;20.47;100.00;99550.80;1805490;79;20830;-70
2022/07/01 04:00:28;;;;;;;17.62;15.90;;;;;;;22.18;100.00;99571.55;1788008;80;20893;-70
2022/07/01 04:07:07;;;;;;;22.13;16.37;;;;;;;22.68;100.00;99572.92;1788056;80;21459;-69
2022/07/01 04:13:50;;;;;;;15.53;13.98;;;;;;;22.73;100.00;99576.56;1788531;80;20869;-70
2022/07/01 04:20:26;;;;;;;14.75;12.07;;;;;;;23.21;100.00;99580.68;1788055;80;21404;-68
2022/07/01 04:27:05;;;;;;;14.60;11.95;;;;;;;23.79;100.00;99587.55;1788555;80;21388;-69
2022/07/01 04:33:46;;;;;;;14.93;12.15;;;;;;;23.40;100.00;99591.92;1787977;80;20854;-69
2022/07/01 04:40:10;;;;;;;14.13;12.78;;;;;;;22.66;100.00;99586.12;1808248;79;20927;-71
2022/07/01 04:46:49;;;;;;;20.95;13.62;;;;;;;22.85;100.00;99592.47;1807795;79;20934;-71
2022/07/01 04:53:28;;;;;;;22.90;18.17;;;;;;;23.44;100.00;99596.93;1808227;79;20849;-70
2022/07/01 05:00:09;;;;;;;18.15;15.58;;;;;;;23.83;100.00;99597.48;1788050;80;21455;-70
2022/07/01 05:06:47;;;;;;;14.93;11.53;;;;;;;25.01;100.00;99598.38;1787947;80;20866;-70
2022/07/01 05:13:20;;;;;;;11.93;10.45;;;;;;;24.95;100.00;99608.57;1787944;80;20913;-70
2022/07/01 05:26:42;;;;;;;9.93;8.00;;;;;;;26.50;100.00;99615.48;1794148;80;20905;-70
2022/07/01 05:33:21;;;;;;;9.63;8.60;;;;;;;26.88;98.82;99619.48;1794135;80;20920;-71
2022/07/01 05:39:41;;;;;;;10.30;6.78;;;;;;;27.06;96.57;99617.88;1794182;80;21471;-71
2022/07/01 05:46:06;;;;;;;12.00;8.13;;;;;;;26.20;100.00;99622.08;1794598;80;21804;-71
2022/07/01 05:52:45;;;;;;;34.27;25.60;;;;;;;27.23;97.69;99616.66;1794590;80;20857;-73
2022/07/01 05:59:24;;;;;;;47.35;38.55;;;;;;;27.63;95.28;99617.38;1763323;81;21420;-70
2022/07/01 06:06:02;;;;;;;7.47;6.58;;;;;;;28.08;93.16;99625.47;1762882;81;20884;-73
2022/07/01 06:12:50;;;;;;;16.17;14.68;;;;;;;28.16;86.94;99627.16;1760819;81;38099;-72
2022/07/01 06:19:28;;;;;;;6.83;4.67;;;;;;;27.93;87.91;99625.81;1762935;81;20869;-71
2022/07/01 06:26:07;;;;;;;6.12;4.60;;;;;;;28.04;75.74;99624.60;1763348;81;20865;-70
2022/07/01 06:32:46;;;;;;;6.22;4.22;;;;;;;28.29;81.59;99618.08;1762928;81;21456;-72
2022/07/01 06:42:56;;;;;;;5.35;3.75;;;;;;;28.45;66.59;99620.13;1752580;82;20904;-72
2022/07/01 06:49:22;;;;;;;4.95;3.65;;;;;;;29.25;64.29;99619.40;1752863;82;20894;-73
2022/07/01 06:56:01;;;;;;;4.85;4.12;;;;;;;29.17;59.58;99622.45;1756377;81;21463;-71
2022/07/01 07:02:40;;;;;;;7.12;3.67;;;;;;;29.24;60.40;99619.17;1774740;81;20905;-73
2022/07/01 07:09:19;;;;;;;4.85;4.00;;;;;;;29.13;60.82;99609.17;1775190;81;20877;-72
2022/07/01 07:15:58;;;;;;;10.30;3.90;;;;;;;29.31;60.16;99602.47;1774985;81;20890;-71
2022/07/01 07:22:18;;;;;;;4.58;4.00;;;;;;;29.56;56.21;99603.50;1775388;81;20104;-71
2022/07/01 07:28:56;;;;;;;6.25;3.77;;;;;;;30.07;54.70;99611.07;1774881;81;20862;-71
2022/07/01 07:35:35;;;;;;;5.12;4.20;;;;;;;30.22;52.89;99611.97;1774906;81;20854;-72
2022/07/01 07:41:55;;;;;;;5.30;4.12;;;;;;;29.15;58.96;99603.47;1790264;77;20900;-72
2022/07/01 07:48:20;;;;;;;18.05;12.95;;;;;;;29.42;57.43;99607.50;1788415;80;20837;-75
2022/07/01 07:54:59;;;;;;;8.03;5.45;;;;;;;28.16;59.30;99602.33;1788323;80;21316;-73
2022/07/01 08:01:38;;;;;;;6.10;5.60;;;;;;;27.68;60.18;99592.25;1817472;79;20884;-74
2022/07/01 08:06:53;;;;;;;8.18;4.90;;;;;;;29.53;55.03;99597.95;1835500;77;23411;-71
2022/07/01 08:09:22;;;;;;;35.30;24.57;;;;;;;29.46;55.91;99599.45;1790727;80;20989;-70
2022/07/01 08:11:49;;;;;;;6.45;5.85;;;;;;;29.16;57.08;99602.91;1826327;78;21856;-73
2022/07/01 08:14:16;;;;;;;9.08;5.90;;;;;;;28.78;55.93;99602.02;1825843;78;20927;-74
2022/07/01 08:16:45;;;;;;;10.32;6.80;;;;;;;28.95;57.18;99598.67;1825842;78;21729;-71
2022/07/01 08:19:12;;;;;;;19.70;6.22;;;;;;;28.67;57.62;99598.34;1825981;78;21485;-74
2022/07/01 08:21:38;;;;;;;9.40;4.90;;;;;;;28.29;60.09;99598.17;1826093;78;20902;-73
2022/07/01 08:24:06;;;;;;;5.97;5.20;;;;;;;28.15;60.06;99602.91;1826280;78;21228;-71
2022/07/01 08:26:32;;;;;;;6.58;5.17;;;;;;;28.00;62.03;99590.05;1825854;78;20962;-71
2022/07/01 08:29:00;;;;;;;13.60;5.47;;;;;;;27.87;62.06;99592.80;1825724;78;21492;-73
2022/07/01 08:31:26;;;;;;;9.93;4.95;;;;;;;27.79;60.54;99591.86;1826502;78;20891;-72
2022/07/01 08:33:54;;;;;;;9.30;4.97;;;;;;;27.72;60.53;99587.61;1827740;78;20867;-72
2022/07/01 08:36:21;;;;;;;29.87;21.00;;;;;;;27.72;60.12;99588.40;1825842;78;21229;-73
2022/07/01 08:38:49;;;;;;;9.03;7.60;;;;;;;28.22;59.52;99584.27;1825419;78;20911;-74
2022/07/01 08:41:18;;;;;;;6.58;4.72;;;;;;;28.74;55.97;99588.18;1825098;78;20911;-72
2022/07/01 08:43:45;;;;;;;5.75;5.15;;;;;;;29.14;53.53;99585.91;1825262;78;20836;-74
2022/07/01 08:46:13;;;;;;;6.87;6.17;;;;;;;29.45;51.45;99584.65;1825293;78;20990;-75
2022/07/01 08:48:44;;;;;;;6.75;5.60;;;;;;;29.88;50.76;99586.41;1825511;78;25068;-72
2022/07/01 08:51:12;;;;;;;9.03;5.65;;;;;;;29.96;51.49;99588.05;1825570;78;21556;-71
2022/07/01 08:53:38;;;;;;;;;;;;;;;29.97;51.08;99586.89;1827648;78;20926;-72
2022/07/01 08:58:51;;;;;;;8.63;4.20;;;;;;;30.18;50.79;99593.14;1789801;80;20904;-75
2022/07/01 09:01:24;;;;;;;5.20;4.25;;;;;;;30.07;46.17;99591.70;1787342;80;21098;-71
2022/07/01 09:03:54;;;;;;;10.95;4.45;;;;;;;30.06;45.22;99591.50;1789585;80;20908;-71
2022/07/01 09:06:25;;;;;;;5.70;3.75;;;;;;;30.06;46.96;99592.89;1780424;80;21478;-74
2022/07/01 09:08:52;;;;;;;5.20;3.62;;;;;;;30.74;44.59;99590.52;1773753;81;20937;-76
2022/07/01 09:11:24;;;;;;;3.60;3.30;;;;;;;31.04;42.30;99591.44;1776349;80;20940;-72
2022/07/01 09:14:09;;;;;;;8.85;4.60;;;;;;;31.00;41.81;99581.75;1775997;80;21460;-77
2022/07/01 09:16:48;;;;;;;5.62;4.20;;;;;;;30.86;43.02;99578.92;1775848;80;21438;-72
2022/07/01 09:19:38;;;;;;;5.17;4.60;;;;;;;30.98;42.58;99578.56;1775717;80;20897;-79
2022/07/01 09:22:01;;;;;;;5.70;3.87;;;;;;;31.28;44.48;99574.67;1768731;80;20929;-74
2022/07/01 09:24:41;;;;;;;5.33;4.00;;;;;;;31.29;46.03;99575.68;1784370;80;20849;-75
2022/07/01 09:27:18;;;;;;;4.55;4.15;;;;;;;30.80;45.37;99586.80;1784504;80;21458;-72
2022/07/01 09:29:50;;;;;;;5.72;4.30;;;;;;;30.26;46.63;99576.84;1784100;80;21003;-72
2022/07/01 09:32:20;;;;;;;6.65;4.28;;;;;;;30.36;46.38;99584.21;1784481;80;20853;-75
2022/07/01 09:34:49;;;;;;;24.55;17.35;;;;;;;30.61;45.55;99584.34;1784720;80;20884;-68
2022/07/01 09:37:20;;;;;;;4.55;4.15;;;;;;;30.79;46.11;99578.27;1784937;80;20856;-73
2022/07/01 09:39:52;;;;;;;5.35;4.12;;;;;;;30.83;43.88;99579.11;1784246;79;21231;-75
2022/07/01 09:42:21;;;;;;;4.03;3.72;;;;;;;30.63;43.15;99580.00;1784307;80;21166;-75
2022/07/01 09:45:06;;;;;;;4.37;3.60;;;;;;;30.97;42.34;99577.78;1784732;80;20908;-74
2022/07/01 09:47:34;;;;;;;6.12;4.20;;;;;;;31.40;41.45;99579.27;1784542;80;21439;-74
2022/07/01 09:50:03;;;;;;;4.45;4.05;;;;;;;31.51;40.63;99572.97;1784781;80;20861;-73
2022/07/01 09:52:30;;;;;;;6.47;4.22;;;;;;;31.80;38.70;99577.94;1784677;80;21208;-73
2022/07/01 09:54:57;;;;;;;5.47;3.47;;;;;;;31.86;38.74;99572.77;1784298;80;20925;-75
2022/07/01 09:57:24;;;;;;;5.58;3.65;;;;;;;31.81;37.58;99571.97;1789593;80;21432;-72
2022/07/01 09:59:52;;;;;;;4.78;3.90;;;;;;;32.17;38.30;99575.34;1790977;79;20873;-76
2022/07/01 10:02:19;;;;;;;7.62;3.83;;;;;;;32.28;37.88;99568.36;1791070;80;20884;-76
2022/07/01 10:04:57;;;;;;;4.60;4.20;;;;;;;32.53;37.42;99569.70;1791333;79;21831;-74
2022/07/01 10:08:03;;;;;;;4.87;4.35;;;;;;;32.70;37.98;99564.67;1817033;79;20830;-72
2022/07/01 10:11:03;;;;;;;4.25;3.90;;;;;;;33.15;38.87;99564.88;1819488;78;20960;-71
2022/07/01 10:13:32;;;;;;;6.25;4.25;;;;;;;32.73;38.02;99559.72;1819044;78;20956;-71
2022/07/01 10:15:59;;;;;;;8.18;5.72;;;;;;;32.05;40.67;99551.56;1819185;79;21043;-72
2022/07/01 10:18:27;;;;;;;7.60;5.45;;;;;;;31.28;42.80;99539.42;1815958;78;21148;-74
2022/07/01 10:20:56;;;;;;;7.17;4.65;;;;;;;30.78;42.56;99546.81;1818939;79;20897;-73
2022/07/01 10:23:26;;;;;;;9.40;4.60;;;;;;;30.24;42.22;99550.09;1819473;78;20912;-72
2022/07/01 10:25:54;;;;;;;4.62;4.22;;;;;;;29.72;41.67;99546.59;1818924;78;20967;-74
2022/07/01 10:28:31;;;;;;;5.35;4.85;;;;;;;29.76;42.72;99550.75;1819431;78;20885;-75
2022/07/01 10:31:07;;;;;;;7.92;4.40;;;;;;;30.13;42.99;99540.92;1818673;78;21295;-76
2022/07/01 10:33:41;;;;;;;6.40;4.83;;;;;;;30.67;43.00;99542.60;1819485;79;21458;-74
2022/07/01 10:36:30;;;;;;;7.00;4.78;;;;;;;31.06;42.00;99549.67;1789708;79;21013;-72
2022/07/01 10:42:13;;;;;;;4.97;4.58;;;;;;;31.48;40.64;99543.23;1784974;75;21112;-75
2022/07/01 10:44:39;;;;;;;5.85;4.10;;;;;;;31.70;39.23;99541.25;1766140;81;21939;-73
2022/07/01 10:47:07;;;;;;;;;;;;;;;32.00;39.61;99536.11;1768908;81;21430;-72
2022/07/01 10:49:43;;;;;;;5.35;3.50;;;;;;;32.05;39.68;99534.91;1766459;81;20093;-68
2022/07/01 10:52:16;;;;;;;5.17;3.92;;;;;;;31.91;37.95;99537.07;1766307;81;20921;-72
2022/07/01 10:54:52;;;;;;;4.00;3.50;;;;;;;31.56;39.68;99535.91;1766640;81;20918;-71
2022/07/01 10:57:31;;;;;;;6.00;4.08;;;;;;;31.11;38.76;99538.80;1766411;81;21141;-70
2022/07/01 11:00:05;;;;;;;5.30;3.92;;;;;;;30.88;39.27;99530.24;1763273;81;20838;-72
2022/07/01 11:02:37;;;;;;;5.47;4.25;;;;;;;30.79;38.84;99526.23;1766338;81;20961;-75
2022/07/01 11:05:13;;;;;;;5.72;4.28;;;;;;;31.12;39.76;99522.39;1766276;81;20985;-69
2022/07/01 11:07:46;;;;;;;6.37;4.00;;;;;;;31.40;38.01;99522.42;1773522;80;20933;-71
2022/07/01 11:10:15;;;;;;;5.87;4.33;;;;;;;31.64;37.10;99522.05;1781253;80;21178;-73
2022/07/01 11:12:46;;;;;;;4.40;4.00;;;;;;;31.74;38.32;99524.80;1780947;80;20922;-70
2022/07/01 11:15:15;;;;;;;6.97;4.45;;;;;;;31.91;35.79;99524.58;1780968;80;21005;-71
2022/07/01 11:17:44;;;;;;;5.15;4.70;;;;;;;31.97;36.58;99516.66;1781074;80;20870;-72
2022/07/01 11:20:11;;;;;;;5.20;4.67;;;;;;;31.73;38.07;99513.52;1780815;80;20992;-71
2022/07/01 11:22:38;;;;;;;10.28;5.03;;;;;;;31.61;40.03;99508.38;1750934;80;25173;-73
2022/07/01 11:25:09;;;;;;;6.15;4.30;;;;;;;31.49;40.65;99506.00;1780901;80;20929;-73
2022/07/01 11:27:37;;;;;;;5.67;5.12;;;;;;;30.93;40.23;99506.30;1779995;80;21369;-72
2022/07/01 11:30:11;;;;;;;9.88;5.47;;;;;;;30.88;40.90;99507.29;1781269;80;20930;-72
2022/07/01 11:32:44;;;;;;;8.43;5.40;;;;;;;30.82;40.09;99502.70;1781001;80;20893;-72
2022/07/01 11:40:58;;;;;;;5.30;4.80;;;;;;;31.28;36.81;99497.83;1780974;80;20913;-71
2022/07/01 11:43:28;;;;;;;5.20;4.70;;;;;;;31.44;36.30;99500.86;1785754;80;20952;-73
2022/07/01 11:45:55;;;;;;;7.72;4.97;;;;;;;31.55;36.72;99496.87;1755741;80;20950;-72
2022/07/01 11:48:35;;;;;;;5.70;4.58;;;;;;;31.44;36.91;99493.92;1782236;80;21659;-74
2022/07/01 11:51:13;;;;;;;5.10;4.62;;;;;;;31.45;37.29;99489.95;1752098;81;20972;-74
2022/07/01 11:53:46;;;;;;;9.13;4.80;;;;;;;31.55;36.17;99486.38;1762216;81;20910;-75
2022/07/01 11:56:14;;;;;;;6.95;4.65;;;;;;;31.68;39.27;99488.14;1761905;81;20915;-75
2022/07/01 11:58:50;;;;;;;5.15;4.65;;;;;;;31.54;37.74;99488.96;1762199;81;20967;-71
2022/07/01 12:01:22;;;;;;;5.10;4.62;;;;;;;31.19;39.14;99484.98;1797787;79;21154;-72
2022/07/01 12:03:49;;;;;;;7.12;4.90;;;;;;;30.63;38.44;99476.73;1797614;79;20888;-72
2022/07/01 12:06:18;;;;;;;9.08;5.35;;;;;;;30.28;39.72;99472.62;1762422;81;20971;-72
2022/07/01 12:08:48;;;;;;;6.37;4.75;;;;;;;30.16;41.95;99472.36;1762250;81;21450;-68
2022/07/01 12:11:17;;;;;;;5.60;5.03;;;;;;;29.75;40.66;99473.11;1762569;81;20936;-72
2022/07/01 12:13:45;;;;;;;7.00;5.22;;;;;;;29.47;42.09;99474.45;1762379;81;21244;-72
2022/07/01 12:16:12;;;;;;;5.83;5.22;;;;;;;29.48;41.47;99474.08;1762429;81;20955;-75
2022/07/01 12:18:39;;;;;;;6.08;5.47;;;;;;;29.74;42.39;99472.30;1762513;81;20845;-74
2022/07/01 12:21:06;;;;;;;5.53;5.03;;;;;;;30.26;40.87;99473.63;1762375;81;20856;-73
2022/07/01 12:23:36;;;;;;;7.62;5.47;;;;;;;30.60;40.05;99473.33;1762632;81;21502;-73
2022/07/01 12:26:04;;;;;;;5.42;4.87;;;;;;;30.76;37.38;99479.32;1762517;81;21957;-74
2022/07/01 12:28:38;;;;;;;8.98;4.95;;;;;;;31.06;36.73;99477.61;1755513;81;20975;-73
2022/07/01 12:31:09;;;;;;;6.35;5.65;;;;;;;31.22;36.82;99469.53;1762394;81;20936;-71
2022/07/01 12:33:38;;;;;;;5.92;5.30;;;;;;;31.24;38.00;99469.94;1762342;81;20932;-71
2022/07/01 12:36:06;;;;;;;6.62;4.60;;;;;;;31.37;38.04;99469.12;1731225;81;20967;-75
2022/07/01 12:38:34;;;;;;;6.72;4.55;;;;;;;31.25;36.85;99467.34;1762377;81;21241;-73
2022/07/01 12:41:01;;;;;;;5.55;4.30;;;;;;;31.22;37.31;99464.77;1797788;79;21117;-74
2022/07/01 12:43:34;;;;;;;;;;;;;;;31.09;36.30;99457.45;1794430;78;20873;-67
2022/07/01 12:46:01;;;;;;;5.10;4.28;;;;;;;31.15;35.49;99466.16;1789206;80;20124;-71
2022/07/01 12:48:28;;;;;;;;;;;;;;;31.34;37.82;99461.60;1792000;80;20915;-73
2022/07/01 12:50:56;;;;;;;;;;;;;;;31.36;36.70;99459.83;1792009;80;21166;-74
2022/07/01 12:53:23;;;;;;;4.40;3.85;;;;;;;31.31;36.99;99462.97;1789331;80;20094;-69
2022/07/01 12:55:54;;;;;;;4.78;4.15;;;;;;;30.83;35.78;99462.75;1786542;80;20971;-72
2022/07/01 12:58:25;;;;;;;6.72;4.37;;;;;;;30.78;36.51;99463.11;1754412;81;20998;-73
2022/07/01 13:00:58;;;;;;;5.03;4.35;;;;;;;30.68;36.45;99461.11;1754906;81;21055;-73
2022/07/01 13:03:26;;;;;;;5.35;4.42;;;;;;;31.07;38.86;99454.88;1720764;82;21211;-72
2022/07/01 13:05:54;;;;;;;6.33;4.20;;;;;;;31.48;35.54;99460.03;1721015;83;20999;-72
2022/07/01 13:08:20;;;;;;;4.85;4.30;;;;;;;31.67;35.63;99460.21;1720801;83;21410;-72
2022/07/01 13:10:47;;;;;;;5.15;4.10;;;;;;;31.70;34.21;99453.86;1732963;82;21047;-74
2022/07/01 13:13:21;;;;;;;3.90;3.52;;;;;;;31.90;33.78;99461.14;1754642;81;21570;-78
2022/07/01 13:15:46;;;;;;;6.45;4.62;;;;;;;32.06;33.95;99460.75;1756653;79;21124;-75
2022/07/01 13:18:14;;;;;;;8.03;4.58;;;;;;;31.72;34.88;99460.59;1721503;83;20980;-75
2022/07/01 13:20:43;;;;;;;4.97;4.15;;;;;;;31.60;34.05;99456.27;1720983;82;21581;-73
2022/07/01 13:23:10;;;;;;;4.17;3.77;;;;;;;31.22;34.49;99457.84;1754177;81;21442;-77
2022/07/01 13:25:38;;;;;;;7.95;4.03;;;;;;;31.28;34.72;99455.45;1721323;82;20925;-77
2022/07/01 13:28:06;;;;;;;4.22;3.83;;;;;;;30.97;35.39;99454.46;1721023;82;21596;-76
2022/07/01 13:30:33;;;;;;;4.30;3.90;;;;;;;30.69;35.38;99450.22;1754789;81;21546;-73
2022/07/01 13:33:00;;;;;;;10.45;4.20;;;;;;;30.29;36.04;99444.56;1754497;81;20884;-73
2022/07/01 13:35:27;;;;;;;7.37;4.12;;;;;;;30.03;36.45;99448.36;1720960;82;20893;-74
2022/07/01 13:37:54;;;;;;;5.85;4.53;;;;;;;29.86;37.17;99443.53;1732714;82;20988;-76
2022/07/01 13:40:22;;;;;;;;;;;;;;;29.75;38.51;99441.30;1757073;81;21163;-76
2022/07/01 13:42:49;;;;;;;7.90;4.40;;;;;;;29.81;38.85;99436.98;1754584;80;20099;-78
2022/07/01 13:45:16;;;;;;;;;;;;;;;30.31;39.43;99437.27;1723343;82;20930;-73
2022/07/01 13:47:42;;;;;;;6.13;4.30;;;;;;;31.05;38.10;99442.00;1720877;83;20127;-75
2022/07/01 13:50:10;;;;;;;6.20;4.03;;;;;;;31.51;34.55;99436.47;1754710;81;20838;-71
2022/07/01 13:52:38;;;;;;;4.80;3.77;;;;;;;31.63;34.54;99445.55;1720971;82;21874;-77
2022/07/01 13:55:07;;;;;;;4.47;3.62;;;;;;;32.05;34.13;99446.69;1754396;81;20975;-74
2022/07/01 13:57:34;;;;;;;6.40;3.42;;;;;;;32.34;32.79;99453.70;1754056;79;20928;-71
2022/07/01 14:00:05;;;;;;;6.42;3.65;;;;;;;32.54;31.70;99445.69;1767230;80;20960;-73
2022/07/01 14:02:34;;;;;;;3.95;3.25;;;;;;;32.36;33.58;99436.02;1767261;81;21005;-74
2022/07/01 14:05:01;;;;;;;4.60;3.85;;;;;;;32.45;34.30;99441.92;1767489;81;21666;-69
2022/07/01 14:07:30;;;;;;;5.80;3.58;;;;;;;32.06;32.75;99428.83;1754566;81;20869;-70
2022/07/01 14:09:58;;;;;;;4.37;3.02;;;;;;;31.97;33.52;99434.78;1754619;81;20912;-68
2022/07/01 14:12:26;;;;;;;4.40;3.98;;;;;;;31.86;33.66;99437.58;1754222;81;20925;-70
2022/07/01 14:14:55;;;;;;;6.30;3.65;;;;;;;31.86;33.87;99436.79;1754668;81;20975;-72
2022/07/01 14:17:22;;;;;;;4.37;3.90;;;;;;;31.97;33.23;99434.78;1754340;81;21244;-70
2022/07/01 14:19:48;;;;;;;3.20;2.90;;;;;;;32.33;33.67;99431.88;1754578;81;20900;-69
2022/07/01 14:22:16;;;;;;;7.60;3.67;;;;;;;32.47;31.88;99433.20;1767651;81;20978;-70
2022/07/01 14:24:43;;;;;;;3.87;3.47;;;;;;;32.43;32.76;99430.42;1767342;81;20949;-71
2022/07/01 14:27:11;;;;;;;3.52;3.17;;;;;;;32.33;32.53;99422.94;1767552;81;21011;-70
2022/07/01 14:29:38;;;;;;;5.37;3.00;;;;;;;32.10;32.24;99428.22;1767574;81;22042;-70
2022/07/01 14:32:07;;;;;;;5.97;3.12;;;;;;;31.98;32.67;99432.22;1767340;81;21463;-71
2022/07/01 14:34:34;;;;;;;3.92;3.50;;;;;;;32.24;32.11;99426.17;1745455;81;20944;-71
2022/07/01 14:37:00;;;;;;;3.65;3.20;;;;;;;32.55;31.58;99423.65;1754743;81;20933;-72
2022/07/01 14:39:27;;;;;;;7.12;3.42;;;;;;;32.61;31.95;99428.20;1754700;81;21427;-71
2022/07/01 14:41:55;;;;;;;3.87;3.15;;;;;;;32.54;32.87;99432.41;1767544;81;21262;-68
2022/07/01 14:44:23;;;;;;;4.75;3.35;;;;;;;32.85;31.10;99430.59;1730977;81;20920;-72
2022/07/01 14:46:51;;;;;;;4.92;2.72;;;;;;;32.86;30.72;99431.59;1754186;81;20893;-72
2022/07/01 14:49:18;;;;;;;3.70;3.15;;;;;;;32.55;31.67;99431.98;1745820;81;20881;-73
2022/07/01 14:51:45;;;;;;;;;;;;;;;32.90;33.24;99424.60;1770095;81;20969;-73
2022/07/01 14:54:11;;;;;;;5.00;2.80;;;;;;;33.07;31.88;99427.09;1767754;81;21293;-72
2022/07/01 14:56:38;;;;;;;3.45;2.80;;;;;;;33.01;30.69;99432.88;1747857;81;20929;-70
2022/07/01 14:59:05;;;;;;;4.92;2.77;;;;;;;32.37;32.13;99424.33;1720830;83;20913;-72
2022/07/01 15:01:33;;;;;;;3.37;2.90;;;;;;;31.97;32.70;99423.11;1720928;83;20917;-73
2022/07/01 15:03:59;;;;;;;3.75;2.70;;;;;;;31.83;34.10;99421.73;1721158;83;20885;-70
2022/07/01 15:06:27;;;;;;;4.05;2.70;;;;;;;31.62;34.66;99421.18;1754293;81;21584;-72
2022/07/01 15:08:53;;;;;;;2.95;2.65;;;;;;;31.40;34.82;99424.58;1720716;83;20925;-71
2022/07/01 15:11:22;;;;;;;3.30;2.95;;;;;;;31.24;34.82;99422.20;1720605;83;20960;-70
2022/07/01 15:13:49;;;;;;;4.55;3.15;;;;;;;31.34;33.75;99421.40;1754561;81;20833;-70
2022/07/01 15:16:15;;;;;;;3.90;2.80;;;;;;;31.61;34.67;99423.77;1755006;81;21503;-69
2022/07/01 15:18:42;;;;;;;3.83;2.92;;;;;;;31.97;33.68;99428.66;1754417;81;21134;-70
2022/07/01 15:21:08;;;;;;;4.40;2.87;;;;;;;32.02;33.51;99419.92;1729758;81;20884;-74
2022/07/01 15:23:35;;;;;;;4.17;3.57;;;;;;;32.13;33.38;99420.47;1755535;81;21190;-71
2022/07/01 15:26:02;;;;;;;3.60;2.60;;;;;;;32.15;34.17;99425.81;1754634;81;20952;-71
2022/07/01 15:28:29;;;;;;;4.70;3.90;;;;;;;31.95;33.69;99435.20;1720917;82;20874;-70
2022/07/01 15:30:56;;;;;;;6.90;4.67;;;;;;;31.86;34.33;99436.79;1754554;81;21321;-73
2022/07/01 15:33:23;;;;;;;4.08;3.35;;;;;;;31.85;33.90;99431.03;1720916;83;28611;-70
2022/07/01 15:35:49;;;;;;;8.70;5.30;;;;;;;31.63;33.61;99437.22;1720760;83;20984;-71
2022/07/01 15:38:16;;;;;;;4.92;3.35;;;;;;;31.46;33.98;99437.47;1720900;83;20854;-68
2022/07/01 15:40:44;;;;;;;6.67;3.22;;;;;;;31.38;32.87;99438.83;1754299;81;21559;-71
2022/07/01 15:43:11;;;;;;;10.00;4.17;;;;;;;31.31;33.20;99433.29;1753991;81;21728;-72
2022/07/01 15:45:38;;;;;;;12.88;4.28;;;;;;;31.20;33.39;99431.11;1696326;82;20949;-76
2022/07/01 15:48:06;;;;;;;6.53;2.80;;;;;;;31.34;34.06;99432.48;1749031;82;20971;-71
2022/07/01 15:50:35;;;;;;;7.55;4.00;;;;;;;31.44;33.90;99427.37;1749330;82;20928;-73
2022/07/01 15:53:03;;;;;;;3.90;3.42;;;;;;;31.32;33.58;99434.86;1749314;82;21550;-71
2022/07/01 15:55:31;;;;;;;4.08;3.37;;;;;;;31.15;33.94;99437.83;1749518;82;21336;-69
2022/07/01 15:57:58;;;;;;;4.22;3.37;;;;;;;31.13;33.07;99433.27;1785853;80;20869;-72
2022/07/01 16:00:25;;;;;;;;;;;;;;;31.10;33.46;99439.62;1751774;82;20956;-71
2022/07/01 16:02:52;;;;;;;5.83;2.35;;;;;;;30.95;33.04;99439.41;1752690;81;20086;-70
2022/07/01 16:05:19;;;;;;;6.80;2.83;;;;;;;30.72;33.49;99440.55;1723331;83;21451;-71
2022/07/01 16:07:46;;;;;;;2.35;2.15;;;;;;;30.59;33.95;99444.84;1786911;80;22080;-73
2022/07/01 16:10:24;;;;;;;2.85;2.22;;;;;;;30.68;33.82;99437.56;1756376;80;20928;-74
2022/07/01 16:12:52;;;;;;;3.15;2.58;;;;;;;30.53;33.37;99437.52;1786524;80;20861;-72
2022/07/01 16:15:18;;;;;;;3.75;2.45;;;;;;;30.46;33.83;99444.42;1787047;80;20884;-70
2022/07/01 16:17:47;;;;;;;3.62;2.58;;;;;;;30.53;33.53;99447.81;1786971;80;21438;-71
2022/07/01 16:20:18;;;;;;;5.12;2.58;;;;;;;30.54;33.68;99447.41;1787110;80;21233;-75
2022/07/01 16:22:48;;;;;;;3.35;2.47;;;;;;;30.65;33.19;99459.09;1786649;80;20952;-72
2022/07/01 16:25:16;;;;;;;2.87;2.42;;;;;;;30.52;33.59;99457.29;1786612;80;20905;-74
2022/07/01 16:27:43;;;;;;;4.62;3.08;;;;;;;30.49;33.42;99458.86;1756959;80;20932;-73
2022/07/01 16:30:11;;;;;;;4.85;2.92;;;;;;;30.46;33.76;99456.88;1787132;80;20912;-73
2022/07/01 16:32:38;;;;;;;2.70;2.35;;;;;;;30.40;33.94;99459.81;1782398;80;21477;-72
2022/07/01 16:35:07;;;;;;;2.92;2.62;;;;;;;30.31;33.36;99459.41;1786931;80;20956;-74
2022/07/01 16:37:35;;;;;;;4.78;2.20;;;;;;;30.20;33.53;99467.62;1786692;80;20915;-70
2022/07/01 16:40:12;;;;;;;5.75;2.77;;;;;;;30.19;33.22;99463.88;1786897;80;20952;-73
2022/07/01 16:42:44;;;;;;;4.58;2.50;;;;;;;30.09;33.92;99466.79;1775074;80;21380;-71
2022/07/01 16:45:11;;;;;;;4.08;2.60;;;;;;;30.05;34.11;99473.67;1788033;77;22126;-72
2022/07/01 16:47:41;;;;;;;5.12;2.70;;;;;;;30.03;34.54;99467.73;1790750;80;20888;-71
2022/07/01 16:50:12;;;;;;;8.28;2.60;;;;;;;29.94;34.56;99468.69;1790178;80;20876;-73
2022/07/01 16:52:45;;;;;;;8.45;2.90;;;;;;;29.88;34.67;99471.60;1790530;80;20911;-72
2022/07/01 16:55:15;;;;;;;6.55;2.80;;;;;;;29.76;34.77;99471.92;1790280;80;21521;-76
2022/07/01 16:57:46;;;;;;;6.20;3.35;;;;;;;29.65;34.93;99470.45;1789805;80;21058;-71
2022/07/01 17:00:20;;;;;;;4.90;2.70;;;;;;;29.54;35.20;99473.72;1754444;81;20925;-71
2022/07/01 17:02:48;;;;;;;3.12;2.60;;;;;;;29.30;35.13;99465.42;1767020;80;20926;-75
2022/07/01 17:05:15;;;;;;;4.05;2.22;;;;;;;28.74;35.94;99463.91;1746752;81;20929;-74
2022/07/01 17:07:42;;;;;;;8.67;2.90;;;;;;;28.15;36.90;99460.00;1767969;81;21527;-76